Data at: 0029 UTC 24 Oct 2017

METAR for:KMNH (Mountain Pass Arpt, CO, US)
Text:KMNH 240011Z AUTO 00000KT 10SM CLR 03/M05 A3049 RMK AO2
Temperature: 3.0°C ( 37°F)
Dewpoint: -5.0°C ( 23°F) [RH = 56%]
Pressure (altimeter):30.49 inches Hg (1032.6 mb)
Winds:calm
Visibility:10 or more sm (16+ km)
Ceiling:at least 12,000 feet AGL
Clouds:sky clear below 12,000 feet AGL
QC Flag:automated observation with no human augmentation
Text:KMNH 232353Z AUTO 00000KT 10SM CLR 03/M06 A3050 RMK AO2
Temperature: 3.0°C ( 37°F)
Dewpoint: -6.0°C ( 21°F) [RH = 52%]
Pressure (altimeter):30.50 inches Hg (1032.9 mb)
Winds:calm
Visibility:10 or more sm (16+ km)
Ceiling:at least 12,000 feet AGL
Clouds:sky clear below 12,000 feet AGL
QC Flag:automated observation with no human augmentation
Text:KMNH 232330Z AUTO 03006KT 10SM CLR 04/M05 A3049 RMK AO2
Temperature: 4.0°C ( 39°F)
Dewpoint: -5.0°C ( 23°F) [RH = 52%]
Pressure (altimeter):30.49 inches Hg (1032.6 mb)
Winds:from the NNE (30 degrees) at 7 MPH (6 knots; 3.1 m/s)
Visibility:10 or more sm (16+ km)
Ceiling:at least 12,000 feet AGL
Clouds:sky clear below 12,000 feet AGL
QC Flag:automated observation with no human augmentation
Text:KMNH 232312Z AUTO 02005KT 10SM CLR 05/M05 A3048 RMK AO2
Temperature: 5.0°C ( 41°F)
Dewpoint: -5.0°C ( 23°F) [RH = 48%]
Pressure (altimeter):30.48 inches Hg (1032.3 mb)
Winds:from the NNE (20 degrees) at 6 MPH (5 knots; 2.6 m/s)
Visibility:10 or more sm (16+ km)
Ceiling:at least 12,000 feet AGL
Clouds:sky clear below 12,000 feet AGL
QC Flag:automated observation with no human augmentation
Text:KMNH 232253Z AUTO 04006KT 10SM CLR 06/M05 A3048 RMK AO2
Temperature: 6.0°C ( 43°F)
Dewpoint: -5.0°C ( 23°F) [RH = 45%]
Pressure (altimeter):30.48 inches Hg (1032.3 mb)
Winds:from the NE (40 degrees) at 7 MPH (6 knots; 3.1 m/s)
Visibility:10 or more sm (16+ km)
Ceiling:at least 12,000 feet AGL
Clouds:sky clear below 12,000 feet AGL
QC Flag:automated observation with no human augmentation
Text:KMNH 232230Z AUTO 02007KT 10SM CLR 06/M05 A3048 RMK AO2
Temperature: 6.0°C ( 43°F)
Dewpoint: -5.0°C ( 23°F) [RH = 45%]
Pressure (altimeter):30.48 inches Hg (1032.3 mb)
Winds:from the NNE (20 degrees) at 8 MPH (7 knots; 3.6 m/s)
Visibility:10 or more sm (16+ km)
Ceiling:at least 12,000 feet AGL
Clouds:sky clear below 12,000 feet AGL
QC Flag:automated observation with no human augmentation
Text:KMNH 232212Z AUTO 05005KT 10SM CLR 06/M04 A3048 RMK AO2
Temperature: 6.0°C ( 43°F)
Dewpoint: -4.0°C ( 25°F) [RH = 49%]
Pressure (altimeter):30.48 inches Hg (1032.3 mb)
Winds:from the NE (50 degrees) at 6 MPH (5 knots; 2.6 m/s)
Visibility:10 or more sm (16+ km)
Ceiling:at least 12,000 feet AGL
Clouds:sky clear below 12,000 feet AGL
QC Flag:automated observation with no human augmentation
Text:KMNH 232154Z AUTO 36004KT 10SM CLR 06/M03 A3047 RMK AO2
Temperature: 6.0°C ( 43°F)
Dewpoint: -3.0°C ( 27°F) [RH = 52%]
Pressure (altimeter):30.47 inches Hg (1031.9 mb)
Winds:from the N (360 degrees) at 5 MPH (4 knots; 2.1 m/s)
Visibility:10 or more sm (16+ km)
Ceiling:at least 12,000 feet AGL
Clouds:sky clear below 12,000 feet AGL
QC Flag:automated observation with no human augmentation
Text:KMNH 232129Z AUTO 04006KT 10SM CLR 06/M03 A3047 RMK AO2
Temperature: 6.0°C ( 43°F)
Dewpoint: -3.0°C ( 27°F) [RH = 52%]
Pressure (altimeter):30.47 inches Hg (1031.9 mb)
Winds:from the NE (40 degrees) at 7 MPH (6 knots; 3.1 m/s)
Visibility:10 or more sm (16+ km)
Ceiling:at least 12,000 feet AGL
Clouds:sky clear below 12,000 feet AGL
QC Flag:automated observation with no human augmentation
Text:KMNH 232112Z AUTO 06004KT 10SM CLR 06/M02 A3046 RMK AO2
Temperature: 6.0°C ( 43°F)
Dewpoint: -2.0°C ( 28°F) [RH = 56%]
Pressure (altimeter):30.46 inches Hg (1031.6 mb)
Winds:from the ENE (60 degrees) at 5 MPH (4 knots; 2.1 m/s)
Visibility:10 or more sm (16+ km)
Ceiling:at least 12,000 feet AGL
Clouds:sky clear below 12,000 feet AGL
QC Flag:automated observation with no human augmentation
Text:KMNH 232053Z AUTO 03006KT 340V060 10SM CLR 06/M02 A3046 RMK AO2
Temperature: 6.0°C ( 43°F)
Dewpoint: -2.0°C ( 28°F) [RH = 56%]
Pressure (altimeter):30.46 inches Hg (1031.6 mb)
Winds:from the NNE (30 degrees) at 7 MPH (6 knots; 3.1 m/s)
Visibility:10 or more sm (16+ km)
Ceiling:at least 12,000 feet AGL
Clouds:sky clear below 12,000 feet AGL
QC Flag:automated observation with no human augmentation
Text:KMNH 232029Z AUTO 05005KT 10SM SCT031 06/M02 A3046 RMK AO2
Temperature: 6.0°C ( 43°F)
Dewpoint: -2.0°C ( 28°F) [RH = 56%]
Pressure (altimeter):30.46 inches Hg (1031.6 mb)
Winds:from the NE (50 degrees) at 6 MPH (5 knots; 2.6 m/s)
Visibility:10 or more sm (16+ km)
Ceiling:at least 12,000 feet AGL
Clouds: scattered clouds at 3100 feet AGL
QC Flag:automated observation with no human augmentation
Text:KMNH 232011Z AUTO 04006KT 10SM SCT031 06/M02 A3046 RMK AO2
Temperature: 6.0°C ( 43°F)
Dewpoint: -2.0°C ( 28°F) [RH = 56%]
Pressure (altimeter):30.46 inches Hg (1031.6 mb)
Winds:from the NE (40 degrees) at 7 MPH (6 knots; 3.1 m/s)
Visibility:10 or more sm (16+ km)
Ceiling:at least 12,000 feet AGL
Clouds: scattered clouds at 3100 feet AGL
QC Flag:automated observation with no human augmentation
Text:KMNH 231952Z AUTO 04004KT 10SM SCT029 06/M02 A3045 RMK AO2
Temperature: 6.0°C ( 43°F)
Dewpoint: -2.0°C ( 28°F) [RH = 56%]
Pressure (altimeter):30.45 inches Hg (1031.2 mb)
Winds:from the NE (40 degrees) at 5 MPH (4 knots; 2.1 m/s)
Visibility:10 or more sm (16+ km)
Ceiling:at least 12,000 feet AGL
Clouds: scattered clouds at 2900 feet AGL
QC Flag:automated observation with no human augmentation
Text:KMNH 231934Z AUTO 02005KT 10SM SCT027 05/M02 A3046 RMK AO2
Temperature: 5.0°C ( 41°F)
Dewpoint: -2.0°C ( 28°F) [RH = 60%]
Pressure (altimeter):30.46 inches Hg (1031.6 mb)
Winds:from the NNE (20 degrees) at 6 MPH (5 knots; 2.6 m/s)
Visibility:10 or more sm (16+ km)
Ceiling:at least 12,000 feet AGL
Clouds: scattered clouds at 2700 feet AGL
QC Flag:automated observation with no human augmentation
Text:KMNH 231912Z AUTO 04006KT 10SM BKN025 05/M02 A3046 RMK AO2
Temperature: 5.0°C ( 41°F)
Dewpoint: -2.0°C ( 28°F) [RH = 60%]
Pressure (altimeter):30.46 inches Hg (1031.6 mb)
Winds:from the NE (40 degrees) at 7 MPH (6 knots; 3.1 m/s)
Visibility:10 or more sm (16+ km)
Ceiling:2500 feet AGL
Clouds: broken clouds at 2500 feet AGL
QC Flag:automated observation with no human augmentation
Text:KMNH 231853Z AUTO 02010KT 10SM BKN023 04/M02 A3047 RMK AO2
Temperature: 4.0°C ( 39°F)
Dewpoint: -2.0°C ( 28°F) [RH = 65%]
Pressure (altimeter):30.47 inches Hg (1031.9 mb)
Winds:from the NNE (20 degrees) at 12 MPH (10 knots; 5.1 m/s)
Visibility:10 or more sm (16+ km)
Ceiling:2300 feet AGL
Clouds: broken clouds at 2300 feet AGL
QC Flag:automated observation with no human augmentation
Text:KMNH 231830Z AUTO 04007KT 10SM BKN019 03/M01 A3046 RMK AO2
Temperature: 3.0°C ( 37°F)
Dewpoint: -1.0°C ( 30°F) [RH = 75%]
Pressure (altimeter):30.46 inches Hg (1031.6 mb)
Winds:from the NE (40 degrees) at 8 MPH (7 knots; 3.6 m/s)
Visibility:10 or more sm (16+ km)
Ceiling:1900 feet AGL
Clouds: broken clouds at 1900 feet AGL
QC Flag:automated observation with no human augmentation
Text:KMNH 231812Z AUTO 03009KT 10SM BKN017 03/M02 A3046 RMK AO2
Temperature: 3.0°C ( 37°F)
Dewpoint: -2.0°C ( 28°F) [RH = 70%]
Pressure (altimeter):30.46 inches Hg (1031.6 mb)
Winds:from the NNE (30 degrees) at 10 MPH (9 knots; 4.6 m/s)
Visibility:10 or more sm (16+ km)
Ceiling:1700 feet AGL
Clouds: broken clouds at 1700 feet AGL
QC Flag:automated observation with no human augmentation
Text:KMNH 231752Z AUTO 05009KT 10SM OVC015 03/M01 A3046 RMK AO2
Temperature: 3.0°C ( 37°F)
Dewpoint: -1.0°C ( 30°F) [RH = 75%]
Pressure (altimeter):30.46 inches Hg (1031.6 mb)
Winds:from the NE (50 degrees) at 10 MPH (9 knots; 4.6 m/s)
Visibility:10 or more sm (16+ km)
Ceiling:1500 feet AGL
Clouds: overcast cloud deck at 1500 feet AGL
QC Flag:automated observation with no human augmentation
Text:KMNH 231729Z AUTO 02010G14KT 10SM OVC013 02/M01 A3046 RMK AO2
Temperature: 2.0°C ( 36°F)
Dewpoint: -1.0°C ( 30°F) [RH = 80%]
Pressure (altimeter):30.46 inches Hg (1031.6 mb)
Winds:from the NNE (20 degrees) at 12 MPH (10 knots; 5.1 m/s) gusting to 16 MPH (14 knots; 7.2 m/s)
Visibility:10 or more sm (16+ km)
Ceiling:1300 feet AGL
Clouds: overcast cloud deck at 1300 feet AGL
QC Flag:automated observation with no human augmentation
Text:KMNH 231711Z AUTO 01008G14KT 10SM BKN008 OVC013 01/M02 A3047 RMK AO2
Temperature: 1.0°C ( 34°F)
Dewpoint: -2.0°C ( 28°F) [RH = 80%]
Pressure (altimeter):30.47 inches Hg (1031.9 mb)
Winds:from the N (10 degrees) at 9 MPH (8 knots; 4.1 m/s) gusting to 16 MPH (14 knots; 7.2 m/s)
Visibility:10 or more sm (16+ km)
Ceiling:800 feet AGL
Clouds: broken clouds at 800 feet AGL, overcast cloud deck at 1300 feet AGL
QC Flag:automated observation with no human augmentation
Text:KMNH 231653Z AUTO 03008KT 10SM OVC008 01/M01 A3047 RMK AO2
Temperature: 1.0°C ( 34°F)
Dewpoint: -1.0°C ( 30°F) [RH = 86%]
Pressure (altimeter):30.47 inches Hg (1031.9 mb)
Winds:from the NNE (30 degrees) at 9 MPH (8 knots; 4.1 m/s)
Visibility:10 or more sm (16+ km)
Ceiling:800 feet AGL
Clouds: overcast cloud deck at 800 feet AGL
QC Flag:automated observation with no human augmentation
Text:KMNH 231630Z AUTO 04008KT 10SM OVC006 00/M01 A3048 RMK AO2
Temperature: 0.0°C ( 32°F)
Dewpoint: -1.0°C ( 30°F) [RH = 93%]
Pressure (altimeter):30.48 inches Hg (1032.3 mb)
Winds:from the NE (40 degrees) at 9 MPH (8 knots; 4.1 m/s)
Visibility:10 or more sm (16+ km)
Ceiling:600 feet AGL
Clouds: overcast cloud deck at 600 feet AGL
QC Flag:automated observation with no human augmentation
Text:KMNH 231611Z AUTO 03008KT 10SM OVC008 00/M01 A3049 RMK AO2
Temperature: 0.0°C ( 32°F)
Dewpoint: -1.0°C ( 30°F) [RH = 93%]
Pressure (altimeter):30.49 inches Hg (1032.6 mb)
Winds:from the NNE (30 degrees) at 9 MPH (8 knots; 4.1 m/s)
Visibility:10 or more sm (16+ km)
Ceiling:800 feet AGL
Clouds: overcast cloud deck at 800 feet AGL
QC Flag:automated observation with no human augmentation
Text:KMNH 231553Z AUTO 03009KT 10SM OVC008 00/M01 A3050 RMK AO2
Temperature: 0.0°C ( 32°F)
Dewpoint: -1.0°C ( 30°F) [RH = 93%]
Pressure (altimeter):30.50 inches Hg (1032.9 mb)
Winds:from the NNE (30 degrees) at 10 MPH (9 knots; 4.6 m/s)
Visibility:10 or more sm (16+ km)
Ceiling:800 feet AGL
Clouds: overcast cloud deck at 800 feet AGL
QC Flag:automated observation with no human augmentation
Text:KMNH 231529Z AUTO 03010KT 10SM OVC008 00/M01 A3050 RMK AO2
Temperature: 0.0°C ( 32°F)
Dewpoint: -1.0°C ( 30°F) [RH = 93%]
Pressure (altimeter):30.50 inches Hg (1032.9 mb)
Winds:from the NNE (30 degrees) at 12 MPH (10 knots; 5.1 m/s)
Visibility:10 or more sm (16+ km)
Ceiling:800 feet AGL
Clouds: overcast cloud deck at 800 feet AGL
QC Flag:automated observation with no human augmentation
Text:KMNH 231511Z AUTO 03010G14KT 10SM OVC008 01/M01 A3048 RMK AO2
Temperature: 1.0°C ( 34°F)
Dewpoint: -1.0°C ( 30°F) [RH = 86%]
Pressure (altimeter):30.48 inches Hg (1032.3 mb)
Winds:from the NNE (30 degrees) at 12 MPH (10 knots; 5.1 m/s) gusting to 16 MPH (14 knots; 7.2 m/s)
Visibility:10 or more sm (16+ km)
Ceiling:800 feet AGL
Clouds: overcast cloud deck at 800 feet AGL
QC Flag:automated observation with no human augmentation
Text:KMNH 231448Z AUTO 07012G17KT 10SM OVC008 01/00 A3046 RMK AO2
Temperature: 1.0°C ( 34°F)
Dewpoint: 0.0°C ( 32°F) [RH = 93%]
Pressure (altimeter):30.46 inches Hg (1031.6 mb)
Winds:from the ENE (70 degrees) at 14 MPH (12 knots; 6.2 m/s) gusting to 20 MPH (17 knots; 8.7 m/s)
Visibility:10 or more sm (16+ km)
Ceiling:800 feet AGL
Clouds: overcast cloud deck at 800 feet AGL
QC Flag:automated observation with no human augmentation
Text:KMNH 231431Z AUTO 07014KT 10SM BKN008 01/00 A3043 RMK AO2
Temperature: 1.0°C ( 34°F)
Dewpoint: 0.0°C ( 32°F) [RH = 93%]
Pressure (altimeter):30.43 inches Hg (1030.6 mb)
Winds:from the ENE (70 degrees) at 16 MPH (14 knots; 7.2 m/s)
Visibility:10 or more sm (16+ km)
Ceiling:800 feet AGL
Clouds: broken clouds at 800 feet AGL
QC Flag:automated observation with no human augmentation
Text:KMNH 231413Z AUTO 08012G19KT 10SM CLR 01/00 A3042 RMK AO2
Temperature: 1.0°C ( 34°F)
Dewpoint: 0.0°C ( 32°F) [RH = 93%]
Pressure (altimeter):30.42 inches Hg (1030.2 mb)
Winds:from the E (80 degrees) at 14 MPH (12 knots; 6.2 m/s) gusting to 22 MPH (19 knots; 9.8 m/s)
Visibility:10 or more sm (16+ km)
Ceiling:at least 12,000 feet AGL
Clouds:sky clear below 12,000 feet AGL
QC Flag:automated observation with no human augmentation
Text:KMNH 231353Z AUTO 06015G20KT 10SM CLR 01/00 A3039 RMK AO2
Temperature: 1.0°C ( 34°F)
Dewpoint: 0.0°C ( 32°F) [RH = 93%]
Pressure (altimeter):30.39 inches Hg (1029.2 mb)
Winds:from the ENE (60 degrees) at 17 MPH (15 knots; 7.7 m/s) gusting to 23 MPH (20 knots; 10.3 m/s)
Visibility:10 or more sm (16+ km)
Ceiling:at least 12,000 feet AGL
Clouds:sky clear below 12,000 feet AGL
QC Flag:automated observation with no human augmentation
Text:KMNH 231329Z AUTO 06013G23KT 10SM CLR 05/M02 A3037 RMK AO2
Temperature: 5.0°C ( 41°F)
Dewpoint: -2.0°C ( 28°F) [RH = 60%]
Pressure (altimeter):30.37 inches Hg (1028.5 mb)
Winds:from the ENE (60 degrees) at 15 MPH (13 knots; 6.7 m/s) gusting to 26 MPH (23 knots; 11.8 m/s)
Visibility:10 or more sm (16+ km)
Ceiling:at least 12,000 feet AGL
Clouds:sky clear below 12,000 feet AGL
QC Flag:automated observation with no human augmentation
Text:KMNH 231312Z AUTO 00000KT 10SM CLR 07/M02 A3036 RMK AO2
Temperature: 7.0°C ( 45°F)
Dewpoint: -2.0°C ( 28°F) [RH = 53%]
Pressure (altimeter):30.36 inches Hg (1028.2 mb)
Winds:calm
Visibility:10 or more sm (16+ km)
Ceiling:at least 12,000 feet AGL
Clouds:sky clear below 12,000 feet AGL
QC Flag:automated observation with no human augmentation
Text:KMNH 231249Z AUTO 00000KT 10SM CLR 07/M02 A3035 RMK AO2
Temperature: 7.0°C ( 45°F)
Dewpoint: -2.0°C ( 28°F) [RH = 53%]
Pressure (altimeter):30.35 inches Hg (1027.9 mb)
Winds:calm
Visibility:10 or more sm (16+ km)
Ceiling:at least 12,000 feet AGL
Clouds:sky clear below 12,000 feet AGL
QC Flag:automated observation with no human augmentation
Text:KMNH 231231Z AUTO 00000KT 10SM CLR 04/M02 A3035 RMK AO2
Temperature: 4.0°C ( 39°F)
Dewpoint: -2.0°C ( 28°F) [RH = 65%]
Pressure (altimeter):30.35 inches Hg (1027.9 mb)
Winds:calm
Visibility:10 or more sm (16+ km)
Ceiling:at least 12,000 feet AGL
Clouds:sky clear below 12,000 feet AGL
QC Flag:automated observation with no human augmentation
Text:KMNH 231213Z AUTO 00000KT 10SM CLR 05/M02 A3034 RMK AO2
Temperature: 5.0°C ( 41°F)
Dewpoint: -2.0°C ( 28°F) [RH = 60%]
Pressure (altimeter):30.34 inches Hg (1027.5 mb)
Winds:calm
Visibility:10 or more sm (16+ km)
Ceiling:at least 12,000 feet AGL
Clouds:sky clear below 12,000 feet AGL
QC Flag:automated observation with no human augmentation
Text:KMNH 231148Z AUTO 26004KT 10SM CLR 04/M02 A3032 RMK AO2
Temperature: 4.0°C ( 39°F)
Dewpoint: -2.0°C ( 28°F) [RH = 65%]
Pressure (altimeter):30.32 inches Hg (1026.8 mb)
Winds:from the W (260 degrees) at 5 MPH (4 knots; 2.1 m/s)
Visibility:10 or more sm (16+ km)
Ceiling:at least 12,000 feet AGL
Clouds:sky clear below 12,000 feet AGL
QC Flag:automated observation with no human augmentation
Text:KMNH 231129Z AUTO 00000KT 10SM CLR 03/M02 A3030 RMK AO2
Temperature: 3.0°C ( 37°F)
Dewpoint: -2.0°C ( 28°F) [RH = 70%]
Pressure (altimeter):30.30 inches Hg (1026.2 mb)
Winds:calm
Visibility:10 or more sm (16+ km)
Ceiling:at least 12,000 feet AGL
Clouds:sky clear below 12,000 feet AGL
QC Flag:automated observation with no human augmentation
Text:KMNH 231111Z AUTO 00000KT 10SM CLR 07/M03 A3030 RMK AO2
Temperature: 7.0°C ( 45°F)
Dewpoint: -3.0°C ( 27°F) [RH = 49%]
Pressure (altimeter):30.30 inches Hg (1026.2 mb)
Winds:calm
Visibility:10 or more sm (16+ km)
Ceiling:at least 12,000 feet AGL
Clouds:sky clear below 12,000 feet AGL
QC Flag:automated observation with no human augmentation
Text:KMNH 231049Z AUTO 34003KT 10SM CLR 06/M03 A3031 RMK AO2
Temperature: 6.0°C ( 43°F)
Dewpoint: -3.0°C ( 27°F) [RH = 52%]
Pressure (altimeter):30.31 inches Hg (1026.5 mb)
Winds:from the NNW (340 degrees) at 3 MPH (3 knots; 1.5 m/s)
Visibility:10 or more sm (16+ km)
Ceiling:at least 12,000 feet AGL
Clouds:sky clear below 12,000 feet AGL
QC Flag:automated observation with no human augmentation
Text:KMNH 231030Z AUTO 05003KT 10SM CLR 03/M03 A3030 RMK AO2
Temperature: 3.0°C ( 37°F)
Dewpoint: -3.0°C ( 27°F) [RH = 65%]
Pressure (altimeter):30.30 inches Hg (1026.2 mb)
Winds:from the NE (50 degrees) at 3 MPH (3 knots; 1.5 m/s)
Visibility:10 or more sm (16+ km)
Ceiling:at least 12,000 feet AGL
Clouds:sky clear below 12,000 feet AGL
QC Flag:automated observation with no human augmentation
Text:KMNH 231012Z AUTO 34003KT 10SM CLR 03/M03 A3029 RMK AO2
Temperature: 3.0°C ( 37°F)
Dewpoint: -3.0°C ( 27°F) [RH = 65%]
Pressure (altimeter):30.29 inches Hg (1025.8 mb)
Winds:from the NNW (340 degrees) at 3 MPH (3 knots; 1.5 m/s)
Visibility:10 or more sm (16+ km)
Ceiling:at least 12,000 feet AGL
Clouds:sky clear below 12,000 feet AGL
QC Flag:automated observation with no human augmentation
Text:KMNH 230950Z AUTO 00000KT 10SM CLR 05/M04 A3028 RMK AO2
Temperature: 5.0°C ( 41°F)
Dewpoint: -4.0°C ( 25°F) [RH = 52%]
Pressure (altimeter):30.28 inches Hg (1025.5 mb)
Winds:calm
Visibility:10 or more sm (16+ km)
Ceiling:at least 12,000 feet AGL
Clouds:sky clear below 12,000 feet AGL
QC Flag:automated observation with no human augmentation
Text:KMNH 230931Z AUTO 35003KT 10SM CLR 08/M03 A3029 RMK AO2
Temperature: 8.0°C ( 46°F)
Dewpoint: -3.0°C ( 27°F) [RH = 46%]
Pressure (altimeter):30.29 inches Hg (1025.8 mb)
Winds:from the N (350 degrees) at 3 MPH (3 knots; 1.5 m/s)
Visibility:10 or more sm (16+ km)
Ceiling:at least 12,000 feet AGL
Clouds:sky clear below 12,000 feet AGL
QC Flag:automated observation with no human augmentation
Text:KMNH 230913Z AUTO 03003KT 10SM CLR 08/M03 A3027 RMK AO2
Temperature: 8.0°C ( 46°F)
Dewpoint: -3.0°C ( 27°F) [RH = 46%]
Pressure (altimeter):30.27 inches Hg (1025.1 mb)
Winds:from the NNE (30 degrees) at 3 MPH (3 knots; 1.5 m/s)
Visibility:10 or more sm (16+ km)
Ceiling:at least 12,000 feet AGL
Clouds:sky clear below 12,000 feet AGL
QC Flag:automated observation with no human augmentation
Text:KMNH 230852Z AUTO 03003KT 10SM CLR 06/M03 A3029 RMK AO2
Temperature: 6.0°C ( 43°F)
Dewpoint: -3.0°C ( 27°F) [RH = 52%]
Pressure (altimeter):30.29 inches Hg (1025.8 mb)
Winds:from the NNE (30 degrees) at 3 MPH (3 knots; 1.5 m/s)
Visibility:10 or more sm (16+ km)
Ceiling:at least 12,000 feet AGL
Clouds:sky clear below 12,000 feet AGL
QC Flag:automated observation with no human augmentation
Text:KMNH 230834Z AUTO 00000KT 10SM CLR 05/M03 A3029 RMK AO2
Temperature: 5.0°C ( 41°F)
Dewpoint: -3.0°C ( 27°F) [RH = 56%]
Pressure (altimeter):30.29 inches Hg (1025.8 mb)
Winds:calm
Visibility:10 or more sm (16+ km)
Ceiling:at least 12,000 feet AGL
Clouds:sky clear below 12,000 feet AGL
QC Flag:automated observation with no human augmentation
Text:KMNH 230811Z AUTO 29003KT 10SM CLR 06/M03 A3027 RMK AO2
Temperature: 6.0°C ( 43°F)
Dewpoint: -3.0°C ( 27°F) [RH = 52%]
Pressure (altimeter):30.27 inches Hg (1025.1 mb)
Winds:from the WNW (290 degrees) at 3 MPH (3 knots; 1.5 m/s)
Visibility:10 or more sm (16+ km)
Ceiling:at least 12,000 feet AGL
Clouds:sky clear below 12,000 feet AGL
QC Flag:automated observation with no human augmentation
Text:KMNH 230753Z AUTO 30006KT 10SM CLR 05/M03 A3026 RMK AO2
Temperature: 5.0°C ( 41°F)
Dewpoint: -3.0°C ( 27°F) [RH = 56%]
Pressure (altimeter):30.26 inches Hg (1024.8 mb)
Winds:from the WNW (300 degrees) at 7 MPH (6 knots; 3.1 m/s)
Visibility:10 or more sm (16+ km)
Ceiling:at least 12,000 feet AGL
Clouds:sky clear below 12,000 feet AGL
QC Flag:automated observation with no human augmentation
Text:KMNH 230731Z AUTO 23008KT 10SM CLR 08/M03 A3025 RMK AO2
Temperature: 8.0°C ( 46°F)
Dewpoint: -3.0°C ( 27°F) [RH = 46%]
Pressure (altimeter):30.25 inches Hg (1024.5 mb)
Winds:from the SW (230 degrees) at 9 MPH (8 knots; 4.1 m/s)
Visibility:10 or more sm (16+ km)
Ceiling:at least 12,000 feet AGL
Clouds:sky clear below 12,000 feet AGL
QC Flag:automated observation with no human augmentation
Text:KMNH 230713Z AUTO 24007KT 10SM CLR 05/M03 A3025 RMK AO2
Temperature: 5.0°C ( 41°F)
Dewpoint: -3.0°C ( 27°F) [RH = 56%]
Pressure (altimeter):30.25 inches Hg (1024.5 mb)
Winds:from the WSW (240 degrees) at 8 MPH (7 knots; 3.6 m/s)
Visibility:10 or more sm (16+ km)
Ceiling:at least 12,000 feet AGL
Clouds:sky clear below 12,000 feet AGL
QC Flag:automated observation with no human augmentation
Text:KMNH 230653Z AUTO 28004KT 10SM CLR 06/M03 A3026 RMK AO2
Temperature: 6.0°C ( 43°F)
Dewpoint: -3.0°C ( 27°F) [RH = 52%]
Pressure (altimeter):30.26 inches Hg (1024.8 mb)
Winds:from the W (280 degrees) at 5 MPH (4 knots; 2.1 m/s)
Visibility:10 or more sm (16+ km)
Ceiling:at least 12,000 feet AGL
Clouds:sky clear below 12,000 feet AGL
QC Flag:automated observation with no human augmentation
Text:KMNH 230630Z AUTO 10004KT 10SM CLR 03/M03 A3026 RMK AO2
Temperature: 3.0°C ( 37°F)
Dewpoint: -3.0°C ( 27°F) [RH = 65%]
Pressure (altimeter):30.26 inches Hg (1024.8 mb)
Winds:from the E (100 degrees) at 5 MPH (4 knots; 2.1 m/s)
Visibility:10 or more sm (16+ km)
Ceiling:at least 12,000 feet AGL
Clouds:sky clear below 12,000 feet AGL
QC Flag:automated observation with no human augmentation
Text:KMNH 230613Z AUTO 23005KT 10SM CLR 05/M04 A3025 RMK AO2
Temperature: 5.0°C ( 41°F)
Dewpoint: -4.0°C ( 25°F) [RH = 52%]
Pressure (altimeter):30.25 inches Hg (1024.5 mb)
Winds:from the SW (230 degrees) at 6 MPH (5 knots; 2.6 m/s)
Visibility:10 or more sm (16+ km)
Ceiling:at least 12,000 feet AGL
Clouds:sky clear below 12,000 feet AGL
QC Flag:automated observation with no human augmentation
Text:KMNH 230554Z AUTO 21008KT 10SM CLR 07/M05 A3026 RMK AO2
Temperature: 7.0°C ( 45°F)
Dewpoint: -5.0°C ( 23°F) [RH = 42%]
Pressure (altimeter):30.26 inches Hg (1024.8 mb)
Winds:from the SSW (210 degrees) at 9 MPH (8 knots; 4.1 m/s)
Visibility:10 or more sm (16+ km)
Ceiling:at least 12,000 feet AGL
Clouds:sky clear below 12,000 feet AGL
QC Flag:automated observation with no human augmentation
Text:KMNH 230530Z AUTO 29004KT 10SM CLR 05/M04 A3027 RMK AO2
Temperature: 5.0°C ( 41°F)
Dewpoint: -4.0°C ( 25°F) [RH = 52%]
Pressure (altimeter):30.27 inches Hg (1025.1 mb)
Winds:from the WNW (290 degrees) at 5 MPH (4 knots; 2.1 m/s)
Visibility:10 or more sm (16+ km)
Ceiling:at least 12,000 feet AGL
Clouds:sky clear below 12,000 feet AGL
QC Flag:automated observation with no human augmentation
Text:KMNH 230512Z AUTO 23004KT 10SM CLR 06/M04 A3027 RMK AO2
Temperature: 6.0°C ( 43°F)
Dewpoint: -4.0°C ( 25°F) [RH = 49%]
Pressure (altimeter):30.27 inches Hg (1025.1 mb)
Winds:from the SW (230 degrees) at 5 MPH (4 knots; 2.1 m/s)
Visibility:10 or more sm (16+ km)
Ceiling:at least 12,000 feet AGL
Clouds:sky clear below 12,000 feet AGL
QC Flag:automated observation with no human augmentation
Text:KMNH 230449Z AUTO 21006KT 10SM CLR 08/M05 A3025 RMK AO2
Temperature: 8.0°C ( 46°F)
Dewpoint: -5.0°C ( 23°F) [RH = 39%]
Pressure (altimeter):30.25 inches Hg (1024.5 mb)
Winds:from the SSW (210 degrees) at 7 MPH (6 knots; 3.1 m/s)
Visibility:10 or more sm (16+ km)
Ceiling:at least 12,000 feet AGL
Clouds:sky clear below 12,000 feet AGL
QC Flag:automated observation with no human augmentation
Text:KMNH 230431Z AUTO 20006KT 10SM CLR 07/M05 A3025 RMK AO2
Temperature: 7.0°C ( 45°F)
Dewpoint: -5.0°C ( 23°F) [RH = 42%]
Pressure (altimeter):30.25 inches Hg (1024.5 mb)
Winds:from the SSW (200 degrees) at 7 MPH (6 knots; 3.1 m/s)
Visibility:10 or more sm (16+ km)
Ceiling:at least 12,000 feet AGL
Clouds:sky clear below 12,000 feet AGL
QC Flag:automated observation with no human augmentation
Text:KMNH 230413Z AUTO 21006KT 10SM CLR 06/M04 A3025 RMK AO2
Temperature: 6.0°C ( 43°F)
Dewpoint: -4.0°C ( 25°F) [RH = 49%]
Pressure (altimeter):30.25 inches Hg (1024.5 mb)
Winds:from the SSW (210 degrees) at 7 MPH (6 knots; 3.1 m/s)
Visibility:10 or more sm (16+ km)
Ceiling:at least 12,000 feet AGL
Clouds:sky clear below 12,000 feet AGL
QC Flag:automated observation with no human augmentation
Text:KMNH 230353Z AUTO 20007KT 10SM CLR 05/M05 A3025 RMK AO2
Temperature: 5.0°C ( 41°F)
Dewpoint: -5.0°C ( 23°F) [RH = 48%]
Pressure (altimeter):30.25 inches Hg (1024.5 mb)
Winds:from the SSW (200 degrees) at 8 MPH (7 knots; 3.6 m/s)
Visibility:10 or more sm (16+ km)
Ceiling:at least 12,000 feet AGL
Clouds:sky clear below 12,000 feet AGL
QC Flag:automated observation with no human augmentation
Text:KMNH 230328Z AUTO 16003KT 10SM CLR 05/M05 A3025 RMK AO2
Temperature: 5.0°C ( 41°F)
Dewpoint: -5.0°C ( 23°F) [RH = 48%]
Pressure (altimeter):30.25 inches Hg (1024.5 mb)
Winds:from the SSE (160 degrees) at 3 MPH (3 knots; 1.5 m/s)
Visibility:10 or more sm (16+ km)
Ceiling:at least 12,000 feet AGL
Clouds:sky clear below 12,000 feet AGL
QC Flag:automated observation with no human augmentation
Text:KMNH 230311Z AUTO 19006KT 10SM CLR 06/M05 A3025 RMK AO2
Temperature: 6.0°C ( 43°F)
Dewpoint: -5.0°C ( 23°F) [RH = 45%]
Pressure (altimeter):30.25 inches Hg (1024.5 mb)
Winds:from the S (190 degrees) at 7 MPH (6 knots; 3.1 m/s)
Visibility:10 or more sm (16+ km)
Ceiling:at least 12,000 feet AGL
Clouds:sky clear below 12,000 feet AGL
QC Flag:automated observation with no human augmentation
Text:KMNH 230253Z AUTO 19004KT 10SM CLR 06/M05 A3025 RMK AO2
Temperature: 6.0°C ( 43°F)
Dewpoint: -5.0°C ( 23°F) [RH = 45%]
Pressure (altimeter):30.25 inches Hg (1024.5 mb)
Winds:from the S (190 degrees) at 5 MPH (4 knots; 2.1 m/s)
Visibility:10 or more sm (16+ km)
Ceiling:at least 12,000 feet AGL
Clouds:sky clear below 12,000 feet AGL
QC Flag:automated observation with no human augmentation
Text:KMNH 230229Z AUTO 21007KT 10SM CLR 07/M05 A3025 RMK AO2
Temperature: 7.0°C ( 45°F)
Dewpoint: -5.0°C ( 23°F) [RH = 42%]
Pressure (altimeter):30.25 inches Hg (1024.5 mb)
Winds:from the SSW (210 degrees) at 8 MPH (7 knots; 3.6 m/s)
Visibility:10 or more sm (16+ km)
Ceiling:at least 12,000 feet AGL
Clouds:sky clear below 12,000 feet AGL
QC Flag:automated observation with no human augmentation
Text:KMNH 230212Z AUTO 17004KT 10SM CLR 06/M04 A3025 RMK AO2
Temperature: 6.0°C ( 43°F)
Dewpoint: -4.0°C ( 25°F) [RH = 49%]
Pressure (altimeter):30.25 inches Hg (1024.5 mb)
Winds:from the S (170 degrees) at 5 MPH (4 knots; 2.1 m/s)
Visibility:10 or more sm (16+ km)
Ceiling:at least 12,000 feet AGL
Clouds:sky clear below 12,000 feet AGL
QC Flag:automated observation with no human augmentation
Text:KMNH 230153Z AUTO 19005KT 10SM CLR 07/M05 A3025 RMK AO2
Temperature: 7.0°C ( 45°F)
Dewpoint: -5.0°C ( 23°F) [RH = 42%]
Pressure (altimeter):30.25 inches Hg (1024.5 mb)
Winds:from the S (190 degrees) at 6 MPH (5 knots; 2.6 m/s)
Visibility:10 or more sm (16+ km)
Ceiling:at least 12,000 feet AGL
Clouds:sky clear below 12,000 feet AGL
QC Flag:automated observation with no human augmentation
Text:KMNH 230130Z AUTO 00000KT 10SM CLR 06/M03 A3025 RMK AO2
Temperature: 6.0°C ( 43°F)
Dewpoint: -3.0°C ( 27°F) [RH = 52%]
Pressure (altimeter):30.25 inches Hg (1024.5 mb)
Winds:calm
Visibility:10 or more sm (16+ km)
Ceiling:at least 12,000 feet AGL
Clouds:sky clear below 12,000 feet AGL
QC Flag:automated observation with no human augmentation
Text:KMNH 230113Z AUTO 00000KT 10SM CLR 08/M04 A3024 RMK AO2
Temperature: 8.0°C ( 46°F)
Dewpoint: -4.0°C ( 25°F) [RH = 42%]
Pressure (altimeter):30.24 inches Hg (1024.1 mb)
Winds:calm
Visibility:10 or more sm (16+ km)
Ceiling:at least 12,000 feet AGL
Clouds:sky clear below 12,000 feet AGL
QC Flag:automated observation with no human augmentation
Text:KMNH 230052Z AUTO 00000KT 10SM CLR 08/M04 A3024 RMK AO2
Temperature: 8.0°C ( 46°F)
Dewpoint: -4.0°C ( 25°F) [RH = 42%]
Pressure (altimeter):30.24 inches Hg (1024.1 mb)
Winds:calm
Visibility:10 or more sm (16+ km)
Ceiling:at least 12,000 feet AGL
Clouds:sky clear below 12,000 feet AGL
QC Flag:automated observation with no human augmentation
Text:KMNH 230029Z AUTO 19005KT 10SM CLR 08/M03 A3023 RMK AO2
Temperature: 8.0°C ( 46°F)
Dewpoint: -3.0°C ( 27°F) [RH = 46%]
Pressure (altimeter):30.23 inches Hg (1023.8 mb)
Winds:from the S (190 degrees) at 6 MPH (5 knots; 2.6 m/s)
Visibility:10 or more sm (16+ km)
Ceiling:at least 12,000 feet AGL
Clouds:sky clear below 12,000 feet AGL
QC Flag:automated observation with no human augmentation
Text:KMNH 230011Z AUTO 22004KT 10SM CLR 11/M05 A3022 RMK AO2
Temperature: 11.0°C ( 52°F)
Dewpoint: -5.0°C ( 23°F) [RH = 32%]
Pressure (altimeter):30.22 inches Hg (1023.5 mb)
Winds:from the SW (220 degrees) at 5 MPH (4 knots; 2.1 m/s)
Visibility:10 or more sm (16+ km)
Ceiling:at least 12,000 feet AGL
Clouds:sky clear below 12,000 feet AGL
QC Flag:automated observation with no human augmentation
Text:KMNH 222353Z AUTO 00000KT 10SM CLR 11/M05 A3022 RMK AO2
Temperature: 11.0°C ( 52°F)
Dewpoint: -5.0°C ( 23°F) [RH = 32%]
Pressure (altimeter):30.22 inches Hg (1023.5 mb)
Winds:calm
Visibility:10 or more sm (16+ km)
Ceiling:at least 12,000 feet AGL
Clouds:sky clear below 12,000 feet AGL
QC Flag:automated observation with no human augmentation
Text:KMNH 222330Z AUTO 00000KT 10SM CLR 12/M05 A3021 RMK AO2
Temperature: 12.0°C ( 54°F)
Dewpoint: -5.0°C ( 23°F) [RH = 30%]
Pressure (altimeter):30.21 inches Hg (1023.1 mb)
Winds:calm
Visibility:10 or more sm (16+ km)
Ceiling:at least 12,000 feet AGL
Clouds:sky clear below 12,000 feet AGL
QC Flag:automated observation with no human augmentation
Text:KMNH 222312Z AUTO 00000KT 10SM CLR 12/M05 A3022 RMK AO2
Temperature: 12.0°C ( 54°F)
Dewpoint: -5.0°C ( 23°F) [RH = 30%]
Pressure (altimeter):30.22 inches Hg (1023.5 mb)
Winds:calm
Visibility:10 or more sm (16+ km)
Ceiling:at least 12,000 feet AGL
Clouds:sky clear below 12,000 feet AGL
QC Flag:automated observation with no human augmentation
Text:KMNH 222251Z AUTO 34004KT 10SM CLR 12/M04 A3022 RMK AO2
Temperature: 12.0°C ( 54°F)
Dewpoint: -4.0°C ( 25°F) [RH = 32%]
Pressure (altimeter):30.22 inches Hg (1023.5 mb)
Winds:from the NNW (340 degrees) at 5 MPH (4 knots; 2.1 m/s)
Visibility:10 or more sm (16+ km)
Ceiling:at least 12,000 feet AGL
Clouds:sky clear below 12,000 feet AGL
QC Flag:automated observation with no human augmentation
Text:KMNH 222234Z AUTO 32005KT 10SM CLR 13/M05 A3021 RMK AO2
Temperature: 13.0°C ( 55°F)
Dewpoint: -5.0°C ( 23°F) [RH = 28%]
Pressure (altimeter):30.21 inches Hg (1023.1 mb)
Winds:from the NW (320 degrees) at 6 MPH (5 knots; 2.6 m/s)
Visibility:10 or more sm (16+ km)
Ceiling:at least 12,000 feet AGL
Clouds:sky clear below 12,000 feet AGL
QC Flag:automated observation with no human augmentation
Text:KMNH 222212Z AUTO 35005KT 10SM CLR 14/M06 A3021 RMK AO2
Temperature: 14.0°C ( 57°F)
Dewpoint: -6.0°C ( 21°F) [RH = 24%]
Pressure (altimeter):30.21 inches Hg (1023.1 mb)
Winds:from the N (350 degrees) at 6 MPH (5 knots; 2.6 m/s)
Visibility:10 or more sm (16+ km)
Ceiling:at least 12,000 feet AGL
Clouds:sky clear below 12,000 feet AGL
QC Flag:automated observation with no human augmentation
Text:KMNH 222152Z AUTO 34008KT 10SM CLR 15/M06 A3022 RMK AO2
Temperature: 15.0°C ( 59°F)
Dewpoint: -6.0°C ( 21°F) [RH = 23%]
Pressure (altimeter):30.22 inches Hg (1023.5 mb)
Winds:from the NNW (340 degrees) at 9 MPH (8 knots; 4.1 m/s)
Visibility:10 or more sm (16+ km)
Ceiling:at least 12,000 feet AGL
Clouds:sky clear below 12,000 feet AGL
QC Flag:automated observation with no human augmentation
Text:KMNH 222134Z AUTO 33011G18KT 10SM CLR 15/M07 A3023 RMK AO2
Temperature: 15.0°C ( 59°F)
Dewpoint: -7.0°C ( 19°F) [RH = 21%]
Pressure (altimeter):30.23 inches Hg (1023.8 mb)
Winds:from the NNW (330 degrees) at 13 MPH (11 knots; 5.7 m/s) gusting to 21 MPH (18 knots; 9.3 m/s)
Visibility:10 or more sm (16+ km)
Ceiling:at least 12,000 feet AGL
Clouds:sky clear below 12,000 feet AGL
QC Flag:automated observation with no human augmentation
Text:KMNH 222111Z AUTO 35013G19KT 10SM CLR 15/M06 A3022 RMK AO2
Temperature: 15.0°C ( 59°F)
Dewpoint: -6.0°C ( 21°F) [RH = 23%]
Pressure (altimeter):30.22 inches Hg (1023.5 mb)
Winds:from the N (350 degrees) at 15 MPH (13 knots; 6.7 m/s) gusting to 22 MPH (19 knots; 9.8 m/s)
Visibility:10 or more sm (16+ km)
Ceiling:at least 12,000 feet AGL
Clouds:sky clear below 12,000 feet AGL
QC Flag:automated observation with no human augmentation
Text:KMNH 222051Z AUTO 34010KT 10SM CLR 15/M05 A3021 RMK AO2
Temperature: 15.0°C ( 59°F)
Dewpoint: -5.0°C ( 23°F) [RH = 25%]
Pressure (altimeter):30.21 inches Hg (1023.1 mb)
Winds:from the NNW (340 degrees) at 12 MPH (10 knots; 5.1 m/s)
Visibility:10 or more sm (16+ km)
Ceiling:at least 12,000 feet AGL
Clouds:sky clear below 12,000 feet AGL
QC Flag:automated observation with no human augmentation
Text:KMNH 222034Z AUTO 33013G17KT 10SM CLR 15/M06 A3021 RMK AO2
Temperature: 15.0°C ( 59°F)
Dewpoint: -6.0°C ( 21°F) [RH = 23%]
Pressure (altimeter):30.21 inches Hg (1023.1 mb)
Winds:from the NNW (330 degrees) at 15 MPH (13 knots; 6.7 m/s) gusting to 20 MPH (17 knots; 8.7 m/s)
Visibility:10 or more sm (16+ km)
Ceiling:at least 12,000 feet AGL
Clouds:sky clear below 12,000 feet AGL
QC Flag:automated observation with no human augmentation
Text:KMNH 222012Z AUTO 31014G19KT 10SM CLR 16/M04 A3021 RMK AO2
Temperature: 16.0°C ( 61°F)
Dewpoint: -4.0°C ( 25°F) [RH = 25%]
Pressure (altimeter):30.21 inches Hg (1023.1 mb)
Winds:from the NW (310 degrees) at 16 MPH (14 knots; 7.2 m/s) gusting to 22 MPH (19 knots; 9.8 m/s)
Visibility:10 or more sm (16+ km)
Ceiling:at least 12,000 feet AGL
Clouds:sky clear below 12,000 feet AGL
QC Flag:automated observation with no human augmentation
Text:KMNH 221949Z AUTO 31016G21KT 10SM CLR 17/M04 A3022 RMK AO2
Temperature: 17.0°C ( 63°F)
Dewpoint: -4.0°C ( 25°F) [RH = 23%]
Pressure (altimeter):30.22 inches Hg (1023.5 mb)
Winds:from the NW (310 degrees) at 18 MPH (16 knots; 8.2 m/s) gusting to 24 MPH (21 knots; 10.8 m/s)
Visibility:10 or more sm (16+ km)
Ceiling:at least 12,000 feet AGL
Clouds:sky clear below 12,000 feet AGL
QC Flag:automated observation with no human augmentation
Text:KMNH 221931Z AUTO 31014G23KT 10SM CLR 17/M03 A3022 RMK AO2
Temperature: 17.0°C ( 63°F)
Dewpoint: -3.0°C ( 27°F) [RH = 25%]
Pressure (altimeter):30.22 inches Hg (1023.5 mb)
Winds:from the NW (310 degrees) at 16 MPH (14 knots; 7.2 m/s) gusting to 26 MPH (23 knots; 11.8 m/s)
Visibility:10 or more sm (16+ km)
Ceiling:at least 12,000 feet AGL
Clouds:sky clear below 12,000 feet AGL
QC Flag:automated observation with no human augmentation
Text:KMNH 221913Z AUTO 30018G23KT 10SM CLR 17/M03 A3022 RMK AO2
Temperature: 17.0°C ( 63°F)
Dewpoint: -3.0°C ( 27°F) [RH = 25%]
Pressure (altimeter):30.22 inches Hg (1023.5 mb)
Winds:from the WNW (300 degrees) at 21 MPH (18 knots; 9.3 m/s) gusting to 26 MPH (23 knots; 11.8 m/s)
Visibility:10 or more sm (16+ km)
Ceiling:at least 12,000 feet AGL
Clouds:sky clear below 12,000 feet AGL
QC Flag:automated observation with no human augmentation
Text:KMNH 221849Z AUTO 30010G15KT 10SM CLR 16/M03 A3022 RMK AO2
Temperature: 16.0°C ( 61°F)
Dewpoint: -3.0°C ( 27°F) [RH = 27%]
Pressure (altimeter):30.22 inches Hg (1023.5 mb)
Winds:from the WNW (300 degrees) at 12 MPH (10 knots; 5.1 m/s) gusting to 17 MPH (15 knots; 7.7 m/s)
Visibility:10 or more sm (16+ km)
Ceiling:at least 12,000 feet AGL
Clouds:sky clear below 12,000 feet AGL
QC Flag:automated observation with no human augmentation
Text:KMNH 221831Z AUTO 32009KT 10SM CLR 15/M04 A3023 RMK AO2
Temperature: 15.0°C ( 59°F)
Dewpoint: -4.0°C ( 25°F) [RH = 27%]
Pressure (altimeter):30.23 inches Hg (1023.8 mb)
Winds:from the NW (320 degrees) at 10 MPH (9 knots; 4.6 m/s)
Visibility:10 or more sm (16+ km)
Ceiling:at least 12,000 feet AGL
Clouds:sky clear below 12,000 feet AGL
QC Flag:automated observation with no human augmentation
Text:KMNH 221813Z AUTO 29008G15KT 10SM CLR 15/M03 A3024 RMK AO2
Temperature: 15.0°C ( 59°F)
Dewpoint: -3.0°C ( 27°F) [RH = 29%]
Pressure (altimeter):30.24 inches Hg (1024.1 mb)
Winds:from the WNW (290 degrees) at 9 MPH (8 knots; 4.1 m/s) gusting to 17 MPH (15 knots; 7.7 m/s)
Visibility:10 or more sm (16+ km)
Ceiling:at least 12,000 feet AGL
Clouds:sky clear below 12,000 feet AGL
QC Flag:automated observation with no human augmentation
Text:KMNH 221753Z AUTO 31007KT 10SM CLR 15/M04 A3025 RMK AO2
Temperature: 15.0°C ( 59°F)
Dewpoint: -4.0°C ( 25°F) [RH = 27%]
Pressure (altimeter):30.25 inches Hg (1024.5 mb)
Winds:from the NW (310 degrees) at 8 MPH (7 knots; 3.6 m/s)
Visibility:10 or more sm (16+ km)
Ceiling:at least 12,000 feet AGL
Clouds:sky clear below 12,000 feet AGL
QC Flag:automated observation with no human augmentation
Text:KMNH 221729Z AUTO 31006KT 10SM CLR 14/M04 A3026 RMK AO2
Temperature: 14.0°C ( 57°F)
Dewpoint: -4.0°C ( 25°F) [RH = 28%]
Pressure (altimeter):30.26 inches Hg (1024.8 mb)
Winds:from the NW (310 degrees) at 7 MPH (6 knots; 3.1 m/s)
Visibility:10 or more sm (16+ km)
Ceiling:at least 12,000 feet AGL
Clouds:sky clear below 12,000 feet AGL
QC Flag:automated observation with no human augmentation
Text:KMNH 221712Z AUTO 26008G15KT 10SM CLR 14/M04 A3025 RMK AO2
Temperature: 14.0°C ( 57°F)
Dewpoint: -4.0°C ( 25°F) [RH = 28%]
Pressure (altimeter):30.25 inches Hg (1024.5 mb)
Winds:from the W (260 degrees) at 9 MPH (8 knots; 4.1 m/s) gusting to 17 MPH (15 knots; 7.7 m/s)
Visibility:10 or more sm (16+ km)
Ceiling:at least 12,000 feet AGL
Clouds:sky clear below 12,000 feet AGL
QC Flag:automated observation with no human augmentation
Text:KMNH 221651Z AUTO 29010KT 10SM CLR 13/M05 A3025 RMK AO2
Temperature: 13.0°C ( 55°F)
Dewpoint: -5.0°C ( 23°F) [RH = 28%]
Pressure (altimeter):30.25 inches Hg (1024.5 mb)
Winds:from the WNW (290 degrees) at 12 MPH (10 knots; 5.1 m/s)
Visibility:10 or more sm (16+ km)
Ceiling:at least 12,000 feet AGL
Clouds:sky clear below 12,000 feet AGL
QC Flag:automated observation with no human augmentation
Text:KMNH 221628Z AUTO 27009G16KT 10SM CLR 12/M05 A3027 RMK AO2
Temperature: 12.0°C ( 54°F)
Dewpoint: -5.0°C ( 23°F) [RH = 30%]
Pressure (altimeter):30.27 inches Hg (1025.1 mb)
Winds:from the W (270 degrees) at 10 MPH (9 knots; 4.6 m/s) gusting to 18 MPH (16 knots; 8.2 m/s)
Visibility:10 or more sm (16+ km)
Ceiling:at least 12,000 feet AGL
Clouds:sky clear below 12,000 feet AGL
QC Flag:automated observation with no human augmentation
Text:KMNH 221612Z AUTO 23005KT 10SM CLR 11/M06 A3026 RMK AO2
Temperature: 11.0°C ( 52°F)
Dewpoint: -6.0°C ( 21°F) [RH = 30%]
Pressure (altimeter):30.26 inches Hg (1024.8 mb)
Winds:from the SW (230 degrees) at 6 MPH (5 knots; 2.6 m/s)
Visibility:10 or more sm (16+ km)
Ceiling:at least 12,000 feet AGL
Clouds:sky clear below 12,000 feet AGL
QC Flag:automated observation with no human augmentation
Text:KMNH 221553Z AUTO 22006KT 10SM CLR 08/M07 A3025 RMK AO2
Temperature: 8.0°C ( 46°F)
Dewpoint: -7.0°C ( 19°F) [RH = 34%]
Pressure (altimeter):30.25 inches Hg (1024.5 mb)
Winds:from the SW (220 degrees) at 7 MPH (6 knots; 3.1 m/s)
Visibility:10 or more sm (16+ km)
Ceiling:at least 12,000 feet AGL
Clouds:sky clear below 12,000 feet AGL
QC Flag:automated observation with no human augmentation
Text:KMNH 221530Z AUTO 22006KT 10SM CLR 06/M08 A3026 RMK AO2
Temperature: 6.0°C ( 43°F)
Dewpoint: -8.0°C ( 18°F) [RH = 36%]
Pressure (altimeter):30.26 inches Hg (1024.8 mb)
Winds:from the SW (220 degrees) at 7 MPH (6 knots; 3.1 m/s)
Visibility:10 or more sm (16+ km)
Ceiling:at least 12,000 feet AGL
Clouds:sky clear below 12,000 feet AGL
QC Flag:automated observation with no human augmentation
Text:KMNH 221512Z AUTO 21005KT 10SM CLR 06/M08 A3026 RMK AO2
Temperature: 6.0°C ( 43°F)
Dewpoint: -8.0°C ( 18°F) [RH = 36%]
Pressure (altimeter):30.26 inches Hg (1024.8 mb)
Winds:from the SSW (210 degrees) at 6 MPH (5 knots; 2.6 m/s)
Visibility:10 or more sm (16+ km)
Ceiling:at least 12,000 feet AGL
Clouds:sky clear below 12,000 feet AGL
QC Flag:automated observation with no human augmentation
Text:KMNH 221449Z AUTO 21010G16KT 10SM CLR 05/M10 A3025 RMK AO2
Temperature: 5.0°C ( 41°F)
Dewpoint:-10.0°C ( 14°F) [RH = 33%]
Pressure (altimeter):30.25 inches Hg (1024.5 mb)
Winds:from the SSW (210 degrees) at 12 MPH (10 knots; 5.1 m/s) gusting to 18 MPH (16 knots; 8.2 m/s)
Visibility:10 or more sm (16+ km)
Ceiling:at least 12,000 feet AGL
Clouds:sky clear below 12,000 feet AGL
QC Flag:automated observation with no human augmentation
Text:KMNH 221431Z AUTO 10SM CLR 02/M09 A3025 RMK AO2
Temperature: 2.0°C ( 36°F)
Dewpoint: -9.0°C ( 16°F) [RH = 44%]
Pressure (altimeter):30.25 inches Hg (1024.5 mb)
Visibility:10 or more sm (16+ km)
Ceiling:at least 12,000 feet AGL
Clouds:sky clear below 12,000 feet AGL
QC Flag:automated observation with no human augmentation
Text:KMNH 221412Z AUTO 19008KT 10SM CLR 00/M10 A3025 RMK AO2
Temperature: 0.0°C ( 32°F)
Dewpoint:-10.0°C ( 14°F) [RH = 47%]
Pressure (altimeter):30.25 inches Hg (1024.5 mb)
Winds:from the S (190 degrees) at 9 MPH (8 knots; 4.1 m/s)
Visibility:10 or more sm (16+ km)
Ceiling:at least 12,000 feet AGL
Clouds:sky clear below 12,000 feet AGL
QC Flag:automated observation with no human augmentation
Text:KMNH 221352Z AUTO 10SM CLR M01/M11 A3024 RMK AO2
Temperature: -1.0°C ( 30°F)
Dewpoint:-11.0°C ( 12°F) [RH = 47%]
Pressure (altimeter):30.24 inches Hg (1024.1 mb)
Visibility:10 or more sm (16+ km)
Ceiling:at least 12,000 feet AGL
Clouds:sky clear below 12,000 feet AGL
QC Flag:automated observation with no human augmentation
Text:KMNH 221329Z AUTO 19009KT 10SM CLR M01/M10 A3024 RMK AO2
Temperature: -1.0°C ( 30°F)
Dewpoint:-10.0°C ( 14°F) [RH = 50%]
Pressure (altimeter):30.24 inches Hg (1024.1 mb)
Winds:from the S (190 degrees) at 10 MPH (9 knots; 4.6 m/s)
Visibility:10 or more sm (16+ km)
Ceiling:at least 12,000 feet AGL
Clouds:sky clear below 12,000 feet AGL
QC Flag:automated observation with no human augmentation
Text:KMNH 221313Z AUTO 20009KT 10SM CLR M01/M10 A3023 RMK AO2
Temperature: -1.0°C ( 30°F)
Dewpoint:-10.0°C ( 14°F) [RH = 50%]
Pressure (altimeter):30.23 inches Hg (1023.8 mb)
Winds:from the SSW (200 degrees) at 10 MPH (9 knots; 4.6 m/s)
Visibility:10 or more sm (16+ km)
Ceiling:at least 12,000 feet AGL
Clouds:sky clear below 12,000 feet AGL
QC Flag:automated observation with no human augmentation
Text:KMNH 221251Z AUTO 17007KT 10SM CLR 00/M10 A3022 RMK AO2
Temperature: 0.0°C ( 32°F)
Dewpoint:-10.0°C ( 14°F) [RH = 47%]
Pressure (altimeter):30.22 inches Hg (1023.5 mb)
Winds:from the S (170 degrees) at 8 MPH (7 knots; 3.6 m/s)
Visibility:10 or more sm (16+ km)
Ceiling:at least 12,000 feet AGL
Clouds:sky clear below 12,000 feet AGL
QC Flag:automated observation with no human augmentation